Time;durP1;ratioP1;P1;durP2;ratioP2;P2;SDS_P1;SDS_P2;PMS_P1;PMS_P2;Temp;Humidity;BMP_temperature;BMP_pressure;BME280_temperature;BME280_humidity;BME280_pressure;Samples;Min_cycle;Max_cycle;Signal;HPM_P1;HPM_P2
2023/08/28 00:00:26;;;;;;;3.57;3.13;;;18.80;99.90;;;;;;5035821;28;20502;-43
2023/08/28 00:02:54;;;;;;;5.50;3.23;;;18.80;99.90;;;;;;5036801;28;20903;-44
2023/08/28 00:05:20;;;;;;;2.87;2.63;;;18.80;99.90;;;;;;5034180;28;20566;-44
2023/08/28 00:07:47;;;;;;;3.50;3.00;;;18.70;99.90;;;;;;5053526;28;20445;-44
2023/08/28 00:10:15;;;;;;;2.37;2.10;;;18.70;99.90;;;;;;5055428;28;20449;-44
2023/08/28 00:12:43;;;;;;;2.63;2.07;;;18.60;99.90;;;;;;5054134;28;20438;-44
2023/08/28 00:15:10;;;;;;;3.17;1.87;;;18.70;99.90;;;;;;5051916;28;21041;-44
2023/08/28 00:17:37;;;;;;;2.20;1.77;;;18.50;99.90;;;;;;5051649;28;20571;-44
2023/08/28 00:20:07;;;;;;;2.10;1.53;;;18.30;99.90;;;;;;5051888;28;20484;-44
2023/08/28 00:22:34;;;;;;;3.40;1.60;;;18.40;99.90;;;;;;5051603;28;20435;-44
2023/08/28 00:25:01;;;;;;;3.10;1.87;;;18.40;99.90;;;;;;5051812;28;20450;-44
2023/08/28 00:27:29;;;;;;;3.17;2.00;;;18.40;99.90;;;;;;5051619;28;20434;-44
2023/08/28 00:29:56;;;;;;;2.30;2.10;;;18.40;99.90;;;;;;5050288;28;20921;-44
2023/08/28 00:32:23;;;;;;;2.50;1.70;;;18.40;99.90;;;;;;5051782;28;20483;-44
2023/08/28 00:34:50;;;;;;;2.97;1.47;;;18.30;99.90;;;;;;5050431;28;20515;-43
2023/08/28 00:37:17;;;;;;;4.13;2.20;;;18.30;99.90;;;;;;5050228;28;20537;-43
2023/08/28 00:39:44;;;;;;;2.13;1.67;;;18.30;99.90;;;;;;5051593;28;20436;-44
2023/08/28 00:42:10;;;;;;;2.33;1.80;;;16.90;99.90;;;;;;5053760;28;20434;-43
2023/08/28 00:44:39;;;;;;;4.87;2.30;;;18.40;99.90;;;;;;5053794;28;20485;-44
2023/08/28 00:47:07;;;;;;;2.13;1.50;;;18.20;99.90;;;;;;5053531;28;20440;-44
2023/08/28 00:49:35;;;;;;;2.83;2.00;;;18.20;99.90;;;;;;5053984;28;20442;-43
2023/08/28 00:52:02;;;;;;;4.17;1.80;;;18.10;99.90;;;;;;5055048;28;20423;-43
2023/08/28 00:54:29;;;;;;;2.53;1.50;;;17.90;99.90;;;;;;5053717;28;20472;-44
2023/08/28 00:56:56;;;;;;;1.70;1.60;;;18.00;99.90;;;;;;5053484;28;21037;-42
2023/08/28 00:59:23;;;;;;;2.20;1.50;;;17.60;99.90;;;;;;5054010;28;20453;-44
2023/08/28 01:01:51;;;;;;;1.67;1.40;;;17.90;99.90;;;;;;5055076;28;21074;-43
2023/08/28 01:04:18;;;;;;;2.23;1.70;;;17.90;99.90;;;;;;5055498;28;20474;-43
2023/08/28 01:06:52;;;;;;;2.27;1.50;;;17.70;99.90;;;;;;5045803;28;20925;-43
2023/08/28 01:09:26;;;;;;;2.90;1.63;;;17.80;99.90;;;;;;5035230;28;20799;-44
2023/08/28 01:12:03;;;;;;;2.10;1.80;;;17.80;99.90;;;;;;5035497;28;20437;-44
2023/08/28 01:14:31;;;;;;;2.00;1.53;;;17.70;99.90;;;;;;5035182;28;20856;-44
2023/08/28 01:17:03;;;;;;;2.67;1.70;;;17.60;99.90;;;;;;5034997;28;20978;-45
2023/08/28 01:19:36;;;;;;;3.10;1.63;;;17.20;99.90;;;;;;5035170;28;20493;-43
2023/08/28 01:22:11;;;;;;;3.03;1.70;;;17.60;99.90;;;;;;5034896;28;20485;-42
2023/08/28 01:24:44;;;;;;;2.57;1.67;;;17.60;99.90;;;;;;5033735;28;20455;-44
2023/08/28 01:27:13;;;;;;;2.20;1.60;;;17.50;99.90;;;;;;5033698;28;20454;-43
2023/08/28 01:29:39;;;;;;;6.80;1.90;;;17.50;99.90;;;;;;5033479;28;20458;-45
2023/08/28 01:32:06;;;;;;;2.20;1.70;;;17.40;99.90;;;;;;5033685;28;20421;-45
2023/08/28 01:34:33;;;;;;;2.50;1.47;;;17.40;99.90;;;;;;5033248;28;20472;-44
2023/08/28 01:37:09;;;;;;;2.33;1.50;;;17.40;99.90;;;;;;5033010;28;20518;-44
2023/08/28 01:39:40;;;;;;;3.50;2.03;;;17.30;99.90;;;;;;5034397;28;20492;-41
2023/08/28 01:42:09;;;;;;;1.97;1.50;;;17.30;99.90;;;;;;5032955;28;20488;-44
2023/08/28 01:44:37;;;;;;;2.53;1.30;;;17.30;99.90;;;;;;5032773;28;20479;-44
2023/08/28 01:47:06;;;;;;;2.03;1.83;;;17.20;99.90;;;;;;5034078;28;20429;-44
2023/08/28 01:49:34;;;;;;;2.67;1.90;;;17.20;99.90;;;;;;5034349;28;20437;-43
2023/08/28 01:52:00;;;;;;;2.57;1.50;;;17.20;99.90;;;;;;5034042;28;20428;-43
2023/08/28 01:54:27;;;;;;;2.07;1.87;;;17.20;99.90;;;;;;5033125;28;20457;-43
2023/08/28 01:56:54;;;;;;;3.07;1.80;;;16.90;99.90;;;;;;5034130;28;20463;-43
2023/08/28 01:59:21;;;;;;;6.73;1.90;;;17.20;99.90;;;;;;5033083;28;20447;-43
2023/08/28 02:01:49;;;;;;;2.50;1.70;;;17.20;99.90;;;;;;5032952;28;20505;-43
2023/08/28 02:04:16;;;;;;;3.60;1.90;;;17.20;99.90;;;;;;5034268;28;21198;-43
2023/08/28 02:06:42;;;;;;;2.80;2.00;;;17.10;99.90;;;;;;5040875;28;20491;-44
2023/08/28 02:09:09;;;;;;;8.80;2.30;;;17.20;99.90;;;;;;5054400;28;20456;-43
2023/08/28 02:11:36;;;;;;;2.83;2.00;;;17.30;99.90;;;;;;5052411;28;20455;-44
2023/08/28 02:14:05;;;;;;;3.23;2.00;;;17.20;99.90;;;;;;5052209;28;20475;-43
2023/08/28 02:16:31;;;;;;;2.57;1.70;;;17.00;99.90;;;;;;5052438;28;20956;-44
2023/08/28 02:18:59;;;;;;;1.77;1.63;;;17.00;99.90;;;;;;5053576;28;20455;-44
2023/08/28 02:21:26;;;;;;;3.43;1.93;;;17.00;99.90;;;;;;5052654;28;20486;-44
2023/08/28 02:23:52;;;;;;;2.33;1.77;;;16.70;99.90;;;;;;5053605;28;20464;-46
2023/08/28 02:26:20;;;;;;;1.67;1.50;;;17.00;99.90;;;;;;5052315;28;20422;-43
2023/08/28 02:28:46;;;;;;;2.90;1.90;;;17.00;99.90;;;;;;5053315;28;20444;-42
2023/08/28 02:31:13;;;;;;;1.97;1.77;;;16.90;99.90;;;;;;5053551;28;20447;-43
2023/08/28 02:33:40;;;;;;;2.90;1.80;;;17.00;99.90;;;;;;5053329;28;20454;-43
2023/08/28 02:36:08;;;;;;;2.40;1.70;;;16.60;99.90;;;;;;5053271;28;20431;-45
2023/08/28 02:38:35;;;;;;;2.73;1.77;;;16.90;99.90;;;;;;5051665;28;20503;-45
2023/08/28 02:41:07;;;;;;;2.97;1.60;;;16.90;99.90;;;;;;5051631;28;20464;-42
2023/08/28 02:43:34;;;;;;;2.33;2.13;;;16.80;99.90;;;;;;5053144;28;20546;-44
2023/08/28 02:46:01;;;;;;;2.53;2.00;;;16.80;99.90;;;;;;5053030;28;20427;-43
2023/08/28 02:48:28;;;;;;;3.03;1.80;;;16.90;99.90;;;;;;5052588;28;20523;-43
2023/08/28 02:50:56;;;;;;;3.83;2.83;;;16.70;99.90;;;;;;5051514;28;20480;-43
2023/08/28 02:53:24;;;;;;;3.77;2.37;;;16.80;99.90;;;;;;5051649;28;20472;-44
2023/08/28 02:56:26;;;;;;;4.50;2.30;;;16.80;99.90;;;;;;5051733;28;20459;-43
2023/08/28 02:58:54;;;;;;;2.97;2.00;;;16.80;99.90;;;;;;5048839;28;20549;-45
2023/08/28 03:01:21;;;;;;;2.40;2.03;;;16.70;99.90;;;;;;5051982;28;20549;-44
2023/08/28 03:03:48;;;;;;;2.60;2.10;;;16.60;99.90;;;;;;5053125;28;20454;-44
2023/08/28 03:06:15;;;;;;;3.10;2.20;;;16.70;99.90;;;;;;5049397;28;20453;-44
2023/08/28 03:08:43;;;;;;;3.53;1.90;;;16.60;99.90;;;;;;5033496;28;20444;-43
2023/08/28 03:11:09;;;;;;;2.97;2.20;;;16.60;99.90;;;;;;5037684;28;20445;-43
2023/08/28 03:13:36;;;;;;;2.60;2.40;;;16.40;99.90;;;;;;5034784;28;20462;-44
2023/08/28 03:16:03;;;;;;;4.33;3.93;;;16.60;99.90;;;;;;5034042;28;20520;-43
2023/08/28 03:18:30;;;;;;;3.77;2.03;;;16.50;99.90;;;;;;5031618;28;20535;-45
2023/08/28 03:20:56;;;;;;;2.93;2.50;;;16.50;99.90;;;;;;5031963;28;20521;-44
2023/08/28 03:23:23;;;;;;;3.10;2.10;;;16.50;99.90;;;;;;5031958;28;20470;-43
2023/08/28 03:25:51;;;;;;;3.60;2.27;;;16.50;99.90;;;;;;5032300;28;20517;-44
2023/08/28 03:28:19;;;;;;;2.30;2.10;;;16.30;99.90;;;;;;5031248;28;20444;-44
2023/08/28 03:30:48;;;;;;;5.60;2.17;;;16.70;99.90;;;;;;5031587;28;20483;-45
2023/08/28 03:33:15;;;;;;;2.80;2.40;;;16.20;99.90;;;;;;5033070;28;20436;-43
2023/08/28 03:35:42;;;;;;;2.83;2.33;;;16.30;99.90;;;;;;5033680;28;20439;-44
2023/08/28 03:38:11;;;;;;;5.37;3.20;;;16.20;99.90;;;;;;5032526;28;20452;-44
2023/08/28 03:40:38;;;;;;;4.40;2.30;;;16.20;99.90;;;;;;5033879;28;20453;-44
2023/08/28 03:43:06;;;;;;;5.50;3.13;;;16.20;99.90;;;;;;5035237;28;20458;-44
2023/08/28 03:45:32;;;;;;;4.20;2.63;;;16.20;99.90;;;;;;5031516;28;20456;-45
2023/08/28 03:48:00;;;;;;;4.03;3.10;;;16.20;99.90;;;;;;5031911;28;20487;-45
2023/08/28 03:50:29;;;;;;;3.53;2.80;;;16.20;99.90;;;;;;5030998;28;20448;-44
2023/08/28 03:52:57;;;;;;;3.37;2.90;;;16.20;99.90;;;;;;5031193;28;20440;-43
2023/08/28 03:55:24;;;;;;;4.77;2.90;;;16.10;99.90;;;;;;5032409;28;20469;-44
2023/08/28 03:57:51;;;;;;;5.03;3.00;;;16.30;99.90;;;;;;5032106;28;20433;-44
2023/08/28 04:00:19;;;;;;;3.97;3.57;;;16.10;99.90;;;;;;5031392;28;20451;-44
2023/08/28 04:02:46;;;;;;;4.40;2.50;;;16.10;99.90;;;;;;5033871;28;20577;-46
2023/08/28 04:05:13;;;;;;;7.07;4.03;;;16.00;99.90;;;;;;5036053;28;20484;-44
2023/08/28 04:07:40;;;;;;;4.53;3.13;;;16.10;99.90;;;;;;5051148;28;20447;-44
2023/08/28 04:10:08;;;;;;;3.60;3.17;;;16.10;99.90;;;;;;5054753;28;20920;-44
2023/08/28 04:12:34;;;;;;;3.70;3.40;;;16.10;99.90;;;;;;5053638;28;20481;-44
2023/08/28 04:15:02;;;;;;;3.53;3.10;;;16.10;99.90;;;;;;5055701;28;20885;-44
2023/08/28 04:17:30;;;;;;;5.17;3.00;;;16.40;99.90;;;;;;5056469;28;20542;-45
2023/08/28 04:19:57;;;;;;;3.50;3.20;;;16.10;99.90;;;;;;5058131;28;20543;-43
2023/08/28 04:22:24;;;;;;;4.10;3.37;;;16.20;99.90;;;;;;5057528;28;20992;-43
2023/08/28 04:24:51;;;;;;;5.23;3.53;;;16.10;99.90;;;;;;5057793;28;20464;-44
2023/08/28 04:27:18;;;;;;;4.23;3.33;;;16.60;99.90;;;;;;5057506;28;20485;-45
2023/08/28 04:29:45;;;;;;;3.93;3.53;;;16.20;99.90;;;;;;5057551;28;20429;-44
2023/08/28 04:32:11;;;;;;;6.03;4.07;;;16.20;99.90;;;;;;5058128;28;20546;-43
2023/08/28 04:34:39;;;;;;;5.67;4.20;;;16.20;99.90;;;;;;5056129;28;20457;-45
2023/08/28 04:37:06;;;;;;;6.20;4.37;;;16.20;99.90;;;;;;5055670;28;20457;-44
2023/08/28 04:39:32;;;;;;;4.93;3.57;;;16.10;99.90;;;;;;5057678;28;20413;-44
2023/08/28 04:41:59;;;;;;;5.20;3.57;;;16.10;99.90;;;;;;5055029;28;20806;-44
2023/08/28 04:44:26;;;;;;;4.40;3.67;;;16.20;99.90;;;;;;5054481;28;20463;-44
2023/08/28 04:46:52;;;;;;;5.73;3.67;;;16.30;99.90;;;;;;5055414;28;20532;-45
2023/08/28 04:49:19;;;;;;;4.30;3.90;;;16.30;99.90;;;;;;5056440;28;20830;-44
2023/08/28 04:51:48;;;;;;;8.23;3.90;;;16.30;99.90;;;;;;5056831;28;20505;-43
2023/08/28 04:54:15;;;;;;;3.77;3.00;;;16.40;99.90;;;;;;5056917;28;20476;-45
2023/08/28 04:56:41;;;;;;;7.43;3.60;;;16.40;99.90;;;;;;5056074;28;20425;-45
2023/08/28 04:59:08;;;;;;;4.80;3.70;;;16.70;99.90;;;;;;5056780;28;20435;-45
2023/08/28 05:01:35;;;;;;;5.63;3.87;;;16.50;99.90;;;;;;5053954;28;20476;-45
2023/08/28 05:04:01;;;;;;;8.03;4.07;;;16.60;99.90;;;;;;5054029;28;20472;-45
2023/08/28 05:06:28;;;;;;;4.43;3.57;;;16.60;99.90;;;;;;5046353;28;20452;-44
2023/08/28 05:08:56;;;;;;;5.70;4.20;;;16.70;99.90;;;;;;5033452;28;20447;-46
2023/08/28 05:11:23;;;;;;;6.97;4.30;;;16.70;99.90;;;;;;5033946;28;20454;-44
2023/08/28 05:13:50;;;;;;;4.37;3.90;;;16.70;99.90;;;;;;5035052;28;20865;-45
2023/08/28 05:16:17;;;;;;;4.13;3.40;;;16.70;99.90;;;;;;5034793;28;20964;-45
2023/08/28 05:18:43;;;;;;;6.37;4.20;;;16.70;99.90;;;;;;5034487;28;20438;-45
2023/08/28 05:21:10;;;;;;;6.83;3.73;;;16.80;99.90;;;;;;5035339;28;20465;-45
2023/08/28 05:23:37;;;;;;;4.37;3.97;;;16.80;99.90;;;;;;5035439;28;20458;-45
2023/08/28 05:26:05;;;;;;;5.73;4.60;;;16.80;99.90;;;;;;5035602;28;20437;-46
2023/08/28 05:28:34;;;;;;;7.23;5.40;;;16.70;99.90;;;;;;5034263;28;20447;-45
2023/08/28 05:31:01;;;;;;;6.80;4.53;;;16.80;99.90;;;;;;5034264;28;20503;-44
2023/08/28 05:33:28;;;;;;;5.03;4.40;;;16.80;99.90;;;;;;5034971;28;20542;-46
2023/08/28 05:35:55;;;;;;;7.80;4.27;;;16.80;99.90;;;;;;5033375;28;20514;-46
2023/08/28 05:38:23;;;;;;;4.33;3.93;;;16.80;99.90;;;;;;5032833;28;20456;-46
2023/08/28 05:40:50;;;;;;;10.07;5.90;;;17.10;99.90;;;;;;5032909;28;20449;-45
2023/08/28 05:43:18;;;;;;;5.00;4.30;;;17.00;99.90;;;;;;5032508;28;20491;-47
2023/08/28 05:45:46;;;;;;;6.77;5.30;;;17.10;99.90;;;;;;5032944;28;20460;-45
2023/08/28 05:48:13;;;;;;;7.20;4.87;;;17.20;99.90;;;;;;5033594;28;20442;-45
2023/08/28 05:50:41;;;;;;;5.93;4.60;;;17.20;99.90;;;;;;5032599;28;20456;-45
2023/08/28 05:53:09;;;;;;;7.83;4.33;;;;;;;;;;5034178;28;20470;-45
2023/08/28 05:55:36;;;;;;;8.60;4.60;;;17.30;99.90;;;;;;5033884;28;20401;-45
2023/08/28 05:58:03;;;;;;;7.47;5.70;;;17.50;99.90;;;;;;5031969;28;20516;-44
2023/08/28 06:00:31;;;;;;;6.27;4.73;;;17.30;99.90;;;;;;5032278;28;20442;-45
2023/08/28 06:02:58;;;;;;;7.57;4.33;;;17.00;99.90;;;;;;5033715;28;20521;-45
2023/08/28 06:05:24;;;;;;;7.03;4.97;;;17.30;99.90;;;;;;5032633;28;20562;-45
2023/08/28 06:07:51;;;;;;;14.83;5.93;;;17.30;99.90;;;;;;5050461;28;20452;-46
2023/08/28 06:10:19;;;;;;;10.73;4.50;;;17.00;99.90;;;;;;5052436;28;20540;-45
2023/08/28 06:12:46;;;;;;;8.67;4.93;;;17.40;99.90;;;;;;5055258;28;20452;-45
2023/08/28 06:15:14;;;;;;;9.37;3.90;;;17.40;99.90;;;;;;5053077;28;20464;-45
2023/08/28 06:17:42;;;;;;;9.90;4.47;;;17.50;99.90;;;;;;5052619;28;20460;-45
2023/08/28 06:20:10;;;;;;;13.93;4.50;;;17.70;99.90;;;;;;5052762;28;20451;-46
2023/08/28 06:22:37;;;;;;;5.27;4.00;;;17.60;99.90;;;;;;5053801;28;20482;-45
2023/08/28 06:25:04;;;;;;;7.87;5.00;;;17.60;99.90;;;;;;5054107;28;20454;-45
2023/08/28 06:27:31;;;;;;;6.60;4.30;;;17.70;99.90;;;;;;5052367;28;20799;-46
2023/08/28 06:29:58;;;;;;;7.43;4.73;;;17.80;99.90;;;;;;5052832;28;20437;-44
2023/08/28 06:32:24;;;;;;;6.10;4.20;;;17.80;99.90;;;;;;5053408;28;20423;-44
2023/08/28 06:34:52;;;;;;;4.67;4.10;;;17.80;99.90;;;;;;5052447;28;20837;-45
2023/08/28 06:37:38;;;;;;;3.63;3.33;;;17.90;99.90;;;;;;5052195;28;20645;-45
2023/08/28 06:40:08;;;;;;;7.60;3.70;;;18.00;99.90;;;;;;5052555;28;20525;-45
2023/08/28 06:42:35;;;;;;;5.03;3.70;;;18.10;99.90;;;;;;5051656;28;20488;-52
2023/08/28 06:45:08;;;;;;;5.83;4.07;;;18.10;99.90;;;;;;5051751;28;20477;-45
2023/08/28 06:47:35;;;;;;;6.00;5.17;;;18.20;99.90;;;;;;5053426;28;20456;-45
2023/08/28 06:50:03;;;;;;;8.93;5.07;;;18.40;99.90;;;;;;5052148;28;20430;-45
2023/08/28 06:52:29;;;;;;;6.20;4.00;;;18.40;99.90;;;;;;5052336;28;20425;-45
2023/08/28 06:54:56;;;;;;;7.43;4.27;;;18.40;99.90;;;;;;5052164;28;20461;-46
2023/08/28 06:57:23;;;;;;;7.40;4.13;;;18.40;99.90;;;;;;5052723;28;20504;-43
2023/08/28 06:59:50;;;;;;;7.50;4.77;;;18.40;99.90;;;;;;5052498;28;20441;-45
2023/08/28 07:02:16;;;;;;;7.93;5.40;;;18.40;99.90;;;;;;5052235;28;20481;-45
2023/08/28 07:04:43;;;;;;;11.40;9.80;;;18.80;99.90;;;;;;5052066;28;20458;-44
2023/08/28 07:07:11;;;;;;;8.30;4.47;;;18.40;99.90;;;;;;5039681;28;20688;-44
2023/08/28 07:09:38;;;;;;;6.00;3.47;;;18.40;99.90;;;;;;5032284;28;20439;-44
2023/08/28 07:12:06;;;;;;;6.13;3.13;;;18.40;99.90;;;;;;5032826;28;20955;-43
2023/08/28 07:14:33;;;;;;;7.00;3.83;;;18.50;99.90;;;;;;5032859;28;20462;-44
2023/08/28 07:17:00;;;;;;;7.40;4.43;;;18.50;99.90;;;;;;5032797;28;20810;-45
2023/08/28 07:19:27;;;;;;;7.33;4.10;;;18.60;99.90;;;;;;5033282;28;20475;-44
2023/08/28 07:21:54;;;;;;;6.47;2.80;;;18.60;99.90;;;;;;5031342;28;20827;-45
2023/08/28 07:24:22;;;;;;;2.83;2.30;;;18.70;99.90;;;;;;5032991;28;20458;-44
2023/08/28 07:26:49;;;;;;;4.80;2.50;;;18.70;99.90;;;;;;5032856;28;20447;-45
2023/08/28 07:29:17;;;;;;;5.67;2.60;;;18.70;99.90;;;;;;5032916;28;20435;-44
2023/08/28 07:31:43;;;;;;;4.33;2.60;;;18.70;99.90;;;;;;5032357;28;20454;-44
2023/08/28 07:34:10;;;;;;;4.60;2.23;;;18.80;99.90;;;;;;5032974;28;20451;-44
2023/08/28 07:36:37;;;;;;;10.90;4.50;;;18.90;99.90;;;;;;5032398;28;20472;-44
2023/08/28 07:39:04;;;;;;;3.93;3.10;;;19.00;99.90;;;;;;5032867;28;20432;-44
2023/08/28 07:41:32;;;;;;;8.50;3.30;;;19.00;99.90;;;;;;5032994;28;20431;-44
2023/08/28 07:43:59;;;;;;;4.13;3.00;;;19.10;99.90;;;;;;5032034;28;20494;-44
2023/08/28 07:46:28;;;;;;;6.67;2.70;;;19.40;99.90;;;;;;5031931;28;20444;-44
2023/08/28 07:48:54;;;;;;;12.63;3.40;;;19.20;99.90;;;;;;5031902;28;20443;-44
2023/08/28 07:51:21;;;;;;;5.67;2.70;;;19.40;99.90;;;;;;5036001;28;20443;-44
2023/08/28 07:53:48;;;;;;;10.73;6.70;;;19.20;99.90;;;;;;5039176;28;20538;-43
2023/08/28 07:56:15;;;;;;;5.10;3.20;;;19.30;99.90;;;;;;5039051;28;20444;-44
2023/08/28 07:58:43;;;;;;;3.60;2.23;;;19.30;99.90;;;;;;5037885;28;20434;-44
2023/08/28 08:01:11;;;;;;;3.97;2.10;;;19.30;99.50;;;;;;5040371;28;20436;-43
2023/08/28 08:03:38;;;;;;;4.03;1.60;;;19.40;99.70;;;;;;5038924;28;20490;-43
2023/08/28 08:06:04;;;;;;;3.33;1.80;;;19.40;99.40;;;;;;5043221;28;20447;-44
2023/08/28 08:08:31;;;;;;;5.90;2.07;;;19.20;99.20;;;;;;5059095;28;20434;-44
2023/08/28 08:10:58;;;;;;;4.77;2.10;;;19.50;99.30;;;;;;5057313;28;20441;-43
2023/08/28 08:13:24;;;;;;;5.03;1.97;;;19.50;99.20;;;;;;5055644;28;20550;-44
2023/08/28 08:15:53;;;;;;;6.93;2.93;;;19.70;99.20;;;;;;5055734;28;20450;-44
2023/08/28 08:18:19;;;;;;;8.70;2.80;;;19.60;99.10;;;;;;5055432;28;20439;-44
2023/08/28 08:20:46;;;;;;;3.30;2.13;;;19.60;99.00;;;;;;5055453;28;20438;-44
2023/08/28 08:23:12;;;;;;;4.60;2.53;;;19.70;98.60;;;;;;5055474;28;20483;-45
2023/08/28 08:25:39;;;;;;;3.10;1.90;;;19.70;98.90;;;;;;5055722;28;20426;-44
2023/08/28 08:28:06;;;;;;;4.07;2.37;;;19.70;98.80;;;;;;5055631;28;20829;-44
2023/08/28 08:30:32;;;;;;;3.83;2.03;;;19.80;98.70;;;;;;5055541;28;20432;-45
2023/08/28 08:33:00;;;;;;;4.97;2.33;;;19.80;98.50;;;;;;5055362;28;20917;-43
2023/08/28 08:35:28;;;;;;;3.80;1.97;;;19.80;98.40;;;;;;5055889;28;20497;-43
2023/08/28 08:37:55;;;;;;;5.03;2.50;;;19.80;98.20;;;;;;5055290;28;21055;-44
2023/08/28 08:40:26;;;;;;;2.50;1.60;;;20.00;98.20;;;;;;5055509;28;20527;-45
2023/08/28 08:42:53;;;;;;;6.60;2.47;;;19.70;98.10;;;;;;5055140;28;20511;-45
2023/08/28 08:45:21;;;;;;;4.87;1.87;;;19.70;98.00;;;;;;5055146;28;20471;-44
2023/08/28 08:47:50;;;;;;;6.60;1.50;;;19.70;98.00;;;;;;5056528;28;20444;-44
2023/08/28 08:50:19;;;;;;;5.10;2.30;;;19.70;97.70;;;;;;5056820;28;20444;-44
2023/08/28 08:52:46;;;;;;;4.20;2.23;;;20.00;97.80;;;;;;5057428;28;20434;-45
2023/08/28 08:55:20;;;;;;;3.67;1.93;;;19.90;97.80;;;;;;5057254;28;20456;-43
2023/08/28 08:57:52;;;;;;;4.00;2.13;;;19.90;97.50;;;;;;5057877;28;20435;-44
2023/08/28 09:00:19;;;;;;;1.77;1.23;;;20.00;97.50;;;;;;5057546;28;20425;-45
2023/08/28 09:02:48;;;;;;;5.87;2.00;;;20.20;97.50;;;;;;5056074;28;20480;-44
2023/08/28 09:05:17;;;;;;;2.30;1.50;;;20.40;97.40;;;;;;5057361;28;20455;-44
2023/08/28 09:07:44;;;;;;;4.37;2.00;;;20.60;97.00;;;;;;5039091;28;20448;-43
2023/08/28 09:10:15;;;;;;;3.07;1.40;;;20.80;96.90;;;;;;5037862;28;20437;-42
2023/08/28 09:12:42;;;;;;;3.40;2.00;;;20.90;96.30;;;;;;5041735;28;20810;-45
2023/08/28 09:15:11;;;;;;;3.27;1.70;;;20.90;96.20;;;;;;5043436;28;20876;-45
2023/08/28 09:17:42;;;;;;;4.30;2.37;;;19.50;95.30;;;;;;5040600;28;20846;-42
2023/08/28 09:20:13;;;;;;;2.53;1.73;;;21.00;95.80;;;;;;5042036;28;20442;-43
2023/08/28 09:22:45;;;;;;;4.20;2.07;;;21.00;95.90;;;;;;5040335;28;20453;-43
2023/08/28 09:25:12;;;;;;;3.13;1.53;;;20.90;95.80;;;;;;5039347;28;20479;-43
2023/08/28 09:27:43;;;;;;;4.70;1.67;;;20.90;95.70;;;;;;5035700;28;20459;-42
2023/08/28 09:30:11;;;;;;;4.40;1.90;;;21.00;95.70;;;;;;5035480;28;20454;-42
2023/08/28 09:32:45;;;;;;;5.23;1.73;;;21.00;95.50;;;;;;5037130;28;20442;-43
2023/08/28 09:35:14;;;;;;;3.47;1.80;;;21.00;95.50;;;;;;5036598;28;20449;-43
2023/08/28 09:37:42;;;;;;;2.97;1.60;;;21.00;95.60;;;;;;5036368;28;20442;-43
2023/08/28 09:40:10;;;;;;;5.87;1.73;;;21.10;95.60;;;;;;5036997;28;20439;-43
2023/08/28 09:42:36;;;;;;;2.60;2.00;;;21.10;95.50;;;;;;5038463;28;20451;-42
2023/08/28 09:45:05;;;;;;;9.43;2.57;;;21.10;95.40;;;;;;5035798;28;20548;-45
2023/08/28 09:47:32;;;;;;;8.20;2.47;;;21.10;95.10;;;;;;5034329;28;21177;-45
2023/08/28 09:49:58;;;;;;;2.70;2.20;;;21.20;95.20;;;;;;5034921;28;20442;-44
2023/08/28 09:52:26;;;;;;;2.73;1.30;;;21.10;95.10;;;;;;5033806;28;20444;-44
2023/08/28 09:55:04;;;;;;;3.33;1.40;;;21.10;95.00;;;;;;5033898;28;20457;-45
2023/08/28 09:57:31;;;;;;;4.60;1.80;;;21.10;94.80;;;;;;5034105;28;20477;-47
2023/08/28 09:59:58;;;;;;;3.70;1.60;;;21.10;94.70;;;;;;5034080;28;20430;-45
2023/08/28 10:02:27;;;;;;;4.30;1.83;;;21.10;94.80;;;;;;5034043;28;20443;-45
2023/08/28 10:04:54;;;;;;;4.80;2.60;;;21.20;94.80;;;;;;5034806;28;20483;-45
2023/08/28 10:07:23;;;;;;;4.87;1.83;;;21.30;94.70;;;;;;5046930;28;20475;-45
2023/08/28 10:09:51;;;;;;;3.60;1.47;;;21.10;94.00;;;;;;5053615;28;20442;-45
2023/08/28 10:12:22;;;;;;;4.07;1.77;;;21.40;94.10;;;;;;5053515;28;20488;-43
2023/08/28 10:14:51;;;;;;;3.30;1.80;;;21.50;94.00;;;;;;5052408;28;20453;-45
2023/08/28 10:17:19;;;;;;;5.57;2.00;;;21.50;94.00;;;;;;5053000;28;20433;-45
2023/08/28 10:19:54;;;;;;;5.17;1.87;;;21.30;93.90;;;;;;5053449;28;20431;-45
2023/08/28 10:22:22;;;;;;;3.67;2.00;;;21.60;93.90;;;;;;5051949;28;20489;-43
2023/08/28 10:24:50;;;;;;;5.90;1.50;;;21.80;93.90;;;;;;5052938;28;20495;-45
2023/08/28 10:27:17;;;;;;;5.37;1.90;;;21.90;93.80;;;;;;5052631;28;20811;-45
2023/08/28 10:29:47;;;;;;;11.83;8.50;;;22.00;93.60;;;;;;5052049;28;20581;-46
2023/08/28 10:32:14;;;;;;;14.17;12.77;;;22.10;93.50;;;;;;5052934;28;20563;-45
2023/08/28 10:34:42;;;;;;;6.00;3.13;;;22.20;93.30;;;;;;5053606;28;20446;-45
2023/08/28 10:37:09;;;;;;;5.00;1.80;;;22.30;93.10;;;;;;5052942;28;20468;-45
2023/08/28 10:39:37;;;;;;;4.97;2.00;;;22.20;92.60;;;;;;5053328;28;20437;-46
2023/08/28 10:42:06;;;;;;;3.30;1.50;;;22.40;92.60;;;;;;5051350;28;20489;-44
2023/08/28 10:44:33;;;;;;;3.03;1.50;;;22.30;92.50;;;;;;5053221;28;20497;-44
2023/08/28 10:47:01;;;;;;;3.00;1.40;;;22.40;92.40;;;;;;5041627;28;20433;-45
2023/08/28 10:49:28;;;;;;;2.70;1.40;;;22.40;92.50;;;;;;5033865;28;20445;-45
2023/08/28 10:52:02;;;;;;;7.30;1.93;;;22.40;92.40;;;;;;5034496;28;20448;-43
2023/08/28 10:54:36;;;;;;;2.40;0.97;;;22.40;92.30;;;;;;5034566;28;20461;-43
2023/08/28 10:57:05;;;;;;;4.30;1.50;;;22.50;92.40;;;;;;5035258;28;20431;-45
2023/08/28 10:59:42;;;;;;;4.20;1.90;;;22.60;92.30;;;;;;5034786;28;20808;-44
2023/08/28 11:02:11;;;;;;;5.70;3.27;;;22.70;91.90;;;;;;5034638;28;20440;-43
2023/08/28 11:04:39;;;;;;;10.23;1.80;;;22.70;91.60;;;;;;5032497;28;20569;-45
2023/08/28 11:07:07;;;;;;;2.53;1.50;;;22.60;91.70;;;;;;5033701;28;20432;-44
2023/08/28 11:09:34;;;;;;;5.90;2.17;;;22.50;91.80;;;;;;5032669;28;20449;-44
2023/08/28 11:12:29;;;;;;;3.47;1.60;;;22.50;91.90;;;;;;5032781;28;20440;-44
2023/08/28 11:15:00;;;;;;;4.67;1.67;;;22.60;91.50;;;;;;5034534;28;20468;-47
2023/08/28 11:17:31;;;;;;;4.00;1.50;;;22.60;91.40;;;;;;5033263;28;20438;-44
2023/08/28 11:20:06;;;;;;;7.07;1.63;;;22.60;91.20;;;;;;5032833;28;20458;-44
2023/08/28 11:22:35;;;;;;;4.40;1.70;;;22.60;91.00;;;;;;5032917;28;20440;-44
2023/08/28 11:25:04;;;;;;;2.97;1.60;;;22.60;90.80;;;;;;5033398;28;20481;-44
2023/08/28 11:27:35;;;;;;;8.20;1.73;;;22.50;90.80;;;;;;5033571;28;20853;-45
2023/08/28 11:30:06;;;;;;;3.87;1.57;;;22.40;90.80;;;;;;5033443;28;20438;-45
2023/08/28 11:32:35;;;;;;;3.37;1.50;;;22.30;90.80;;;;;;5033223;28;20441;-46
2023/08/28 11:35:04;;;;;;;2.93;1.80;;;22.20;90.90;;;;;;5032835;28;20456;-47
2023/08/28 11:37:35;;;;;;;4.00;1.80;;;22.20;90.90;;;;;;5033532;28;20844;-44
2023/08/28 11:40:06;;;;;;;6.43;4.73;;;22.20;90.80;;;;;;5033443;28;20670;-46
2023/08/28 11:42:33;;;;;;;2.47;1.60;;;22.20;90.90;;;;;;5033676;28;20466;-45
2023/08/28 11:45:00;;;;;;;4.73;2.03;;;22.30;90.90;;;;;;5035271;28;20487;-44
2023/08/28 11:47:27;;;;;;;4.40;1.53;;;22.30;91.00;;;;;;5034814;28;20442;-45
2023/08/28 11:49:56;;;;;;;3.13;1.47;;;22.40;91.10;;;;;;5035635;28;20934;-45
2023/08/28 11:52:23;;;;;;;4.83;2.17;;;22.50;91.00;;;;;;5033732;28;20541;-45
2023/08/28 11:54:51;;;;;;;5.97;1.37;;;22.60;91.00;;;;;;5032045;28;20978;-45
2023/08/28 11:57:19;;;;;;;3.20;2.10;;;22.80;90.70;;;;;;5032150;28;20408;-43
2023/08/28 11:59:46;;;;;;;4.27;1.40;;;22.80;90.50;;;;;;5032334;28;20445;-46
2023/08/28 12:02:14;;;;;;;5.37;1.70;;;22.80;90.30;;;;;;5032834;28;20430;-44
2023/08/28 12:04:41;;;;;;;4.80;1.60;;;22.80;90.00;;;;;;5032342;28;20567;-44
2023/08/28 12:07:18;;;;;;;4.70;1.43;;;22.60;90.00;;;;;;5032111;28;20432;-44
2023/08/28 12:09:46;;;;;;;5.73;1.83;;;22.60;90.20;;;;;;5032086;28;20451;-46
2023/08/28 12:12:13;;;;;;;3.73;1.60;;;22.50;90.50;;;;;;5032656;28;20429;-45
2023/08/28 12:14:43;;;;;;;2.83;1.50;;;22.60;90.40;;;;;;5032762;28;20949;-45
2023/08/28 12:17:13;;;;;;;4.20;1.40;;;22.70;90.10;;;;;;5030248;28;20445;-44
2023/08/28 12:19:40;;;;;;;3.27;1.20;;;22.80;90.00;;;;;;5032536;28;20435;-44
2023/08/28 12:22:10;;;;;;;14.73;13.23;;;22.80;89.70;;;;;;5031941;28;20577;-45
2023/08/28 12:24:41;;;;;;;5.03;1.88;;;23.00;89.80;;;;;;5033100;28;20449;-44
2023/08/28 12:27:09;;;;;;;4.85;1.80;;;23.30;87.60;;;;;;5030647;28;20797;-44
2023/08/28 12:29:35;;;;;;;3.57;1.57;;;23.40;87.20;;;;;;5032282;28;20735;-47
2023/08/28 12:32:05;;;;;;;3.27;1.60;;;23.20;88.10;;;;;;5032807;28;20927;-45
2023/08/28 12:34:33;;;;;;;2.80;1.33;;;23.10;88.30;;;;;;5031935;28;20455;-44
2023/08/28 12:37:07;;;;;;;4.10;1.50;;;23.10;88.60;;;;;;5030264;28;20440;-44
2023/08/28 12:39:35;;;;;;;2.50;1.83;;;23.10;88.40;;;;;;5036338;28;20446;-45
2023/08/28 12:42:04;;;;;;;1.80;1.20;;;23.00;88.60;;;;;;5034462;28;20458;-44
2023/08/28 12:44:31;;;;;;;2.93;1.80;;;23.10;88.40;;;;;;5034199;28;20498;-44
2023/08/28 12:46:58;;;;;;;3.93;1.10;;;23.00;88.30;;;;;;5033619;28;20968;-44
2023/08/28 12:49:26;;;;;;;4.83;1.27;;;22.90;88.20;;;;;;5034303;28;20446;-45